Time;durP1;ratioP1;P1;durP2;ratioP2;P2;SDS_P1;SDS_P2;PMS_P1;PMS_P2;Temp;Humidity;BMP_temperature;BMP_pressure;BME280_temperature;BME280_humidity;BME280_pressure;Samples;Min_cycle;Max_cycle;Signal;HPM_P1;HPM_P2
2021/07/07 00:02:26;;;;;;;8.43;6.28;;;;;;;22.09;98.24;100233.08;715780;1177;113904;-90
2021/07/07 00:17:28;;;;;;;7.65;6.10;;;;;;;22.04;99.02;100238.23;727399;1200;112692;-89
2021/07/07 00:32:31;;;;;;;8.43;6.50;;;;;;;21.97;99.77;100233.94;724547;1189;114200;-91
2021/07/07 00:47:33;;;;;;;10.93;5.90;;;;;;;21.85;99.34;100231.92;715868;1200;114416;-91
2021/07/07 01:02:39;;;;;;;12.27;6.77;;;;;;;21.67;99.80;100237.11;716062;1200;113619;-88
2021/07/07 01:17:43;;;;;;;12.15;7.70;;;;;;;21.64;100.00;100232.20;715683;1206;115589;-89
2021/07/07 01:32:48;;;;;;;10.73;7.15;;;;;;;21.48;100.00;100255.59;715765;1199;114185;-91
2021/07/07 01:47:51;;;;;;;11.23;7.63;;;;;;;21.30;100.00;100272.27;715812;1176;114126;-91
2021/07/07 02:02:56;;;;;;;11.67;8.03;;;;;;;21.18;100.00;100272.06;715723;1200;114749;-91
2021/07/07 02:17:58;;;;;;;12.93;8.53;;;;;;;20.98;100.00;100250.70;715852;1199;114566;-90
2021/07/07 02:33:03;;;;;;;10.73;8.55;;;;;;;20.89;100.00;100259.93;715724;1200;115335;-90
2021/07/07 02:48:07;;;;;;;14.10;9.40;;;;;;;20.64;100.00;100263.17;715578;1175;114633;-88
2021/07/07 03:03:14;;;;;;;14.93;9.25;;;;;;;20.69;100.00;100268.72;715538;1177;114023;-89
2021/07/07 03:18:17;;;;;;;12.63;9.98;;;;;;;20.70;100.00;100270.37;715532;1199;114524;-90
2021/07/07 03:33:19;;;;;;;13.18;10.65;;;;;;;20.95;100.00;100273.27;715711;1197;114090;-90
2021/07/07 03:48:21;;;;;;;19.27;11.43;;;;;;;21.34;100.00;100284.16;715573;1200;115284;-89
2021/07/07 04:03:23;;;;;;;18.55;11.28;;;;;;;21.84;100.00;100305.06;715571;1199;115112;-90
2021/07/07 04:18:26;;;;;;;13.68;9.38;;;;;;;22.45;100.00;100313.70;715919;1199;115632;-88
2021/07/07 04:33:28;;;;;;;13.60;10.03;;;;;;;23.02;100.00;100294.23;716733;1205;114324;-86
2021/07/07 04:48:30;;;;;;;12.98;10.58;;;;;;;23.55;100.00;100307.17;715750;1200;114409;-87
2021/07/07 05:03:33;;;;;;;14.78;11.38;;;;;;;23.92;100.00;100319.82;717450;1203;114219;-88
2021/07/07 05:18:35;;;;;;;16.00;12.23;;;;;;;24.06;100.00;100321.31;715477;1200;115347;-86
2021/07/07 05:33:37;;;;;;;12.90;11.55;;;;;;;24.21;100.00;100328.16;715479;1200;114974;-88
2021/07/07 05:48:39;;;;;;;15.33;11.73;;;;;;;24.50;100.00;100331.91;715474;1178;114341;-86
2021/07/07 06:03:45;;;;;;;13.90;12.13;;;;;;;25.22;100.00;100338.32;715681;1200;114436;-84
2021/07/07 06:18:47;;;;;;;12.33;11.03;;;;;;;25.86;100.00;100341.17;715584;1199;115724;-87
2021/07/07 06:33:50;;;;;;;14.80;11.75;;;;;;;26.51;98.65;100349.23;715464;1200;114226;-83
2021/07/07 06:48:52;;;;;;;14.35;9.93;;;;;;;27.00;96.37;100373.02;716063;1200;116478;-77
2021/07/07 07:03:54;;;;;;;13.00;10.07;;;;;;;27.36;94.87;100373.64;714776;1182;113924;-84
2021/07/07 07:18:57;;;;;;;13.28;9.18;;;;;;;27.94;91.85;100371.55;715978;1199;115949;-84
2021/07/07 07:34:00;;;;;;;15.70;9.28;;;;;;;28.11;90.14;100381.48;715867;1177;113990;-84
2021/07/07 07:49:05;;;;;;;9.90;8.83;;;;;;;28.63;88.48;100388.32;714852;1199;115109;-73
2021/07/07 08:04:08;;;;;;;15.37;9.43;;;;;;;29.36;84.04;100377.99;714005;1200;114650;-78
2021/07/07 08:19:10;;;;;;;11.10;9.07;;;;;;;30.59;80.16;100385.13;714034;1177;114751;-78
2021/07/07 08:34:12;;;;;;;10.95;7.48;;;;;;;30.73;76.53;100385.45;714121;1200;114496;-73
2021/07/07 08:49:14;;;;;;;8.80;7.43;;;;;;;31.89;73.09;100399.58;714692;1200;113872;-73
2021/07/07 09:04:40;;;;;;;15.53;8.10;;;;;;;31.55;71.15;100406.37;714367;1200;115054;-74
2021/07/07 09:19:43;;;;;;;9.45;6.95;;;;;;;32.45;68.70;100406.70;714090;1178;114073;-74
2021/07/07 09:34:50;;;;;;;7.85;6.80;;;;;;;32.73;67.14;100412.55;714364;1203;113910;-76
2021/07/07 09:49:56;;;;;;;7.20;6.50;;;;;;;32.49;64.42;100424.05;714424;1176;114946;-74
2021/07/07 10:04:59;;;;;;;7.30;6.60;;;;;;;32.99;62.80;100416.73;713957;1199;115145;-74
2021/07/07 10:20:03;;;;;;;11.30;5.53;;;;;;;33.82;59.76;100422.30;714080;1200;114544;-73
2021/07/07 10:35:06;;;;;;;8.73;5.58;;;;;;;33.27;60.30;100422.53;714211;1199;115870;-73
2021/07/07 10:50:10;;;;;;;5.70;5.18;;;;;;;33.71;59.35;100411.78;714109;1203;114328;-72
2021/07/07 11:05:25;;;;;;;5.60;4.90;;;;;;;34.81;59.34;100403.64;713838;1199;115084;-76
2021/07/07 11:20:30;;;;;;;9.58;5.15;;;;;;;36.00;56.14;100414.51;713820;1200;114477;-73
2021/07/07 11:35:36;;;;;;;7.17;5.27;;;;;;;35.85;55.01;100413.70;715236;1200;114348;-73
2021/07/07 11:50:43;;;;;;;7.33;5.37;;;;;;;35.82;53.97;100392.45;714000;1200;114434;-74
2021/07/07 12:06:09;;;;;;;9.23;5.57;;;;;;;35.36;53.18;100406.92;714806;1200;113241;-79
2021/07/07 12:21:23;;;;;;;8.95;6.00;;;;;;;35.98;52.88;100412.89;714380;1180;113752;-78
2021/07/07 12:36:28;;;;;;;6.27;5.13;;;;;;;35.17;54.56;100402.30;714416;1200;113944;-77
2021/07/07 12:51:31;;;;;;;11.48;5.03;;;;;;;35.21;53.92;100395.14;714003;1199;114945;-76
2021/07/07 13:06:33;;;;;;;7.70;4.73;;;;;;;35.23;54.33;100386.69;714617;1182;114132;-76
2021/07/07 13:21:40;;;;;;;9.18;5.50;;;;;;;35.72;53.18;100371.63;714676;1200;115026;-77
2021/07/07 13:36:43;;;;;;;12.07;6.63;;;;;;;34.95;54.72;100365.60;714846;1200;114301;-77
2021/07/07 13:51:45;;;;;;;9.43;6.67;;;;;;;34.70;54.97;100363.23;714570;1199;114795;-78
2021/07/07 14:06:47;;;;;;;7.90;6.15;;;;;;;34.20;54.97;100359.02;714612;1176;113908;-78
2021/07/07 14:21:50;;;;;;;7.60;6.33;;;;;;;35.03;54.85;100349.66;714652;1199;113726;-79
2021/07/07 14:36:52;;;;;;;7.65;5.95;;;;;;;34.97;53.48;100348.95;715840;1178;113788;-79
2021/07/07 14:51:54;;;;;;;9.05;6.73;;;;;;;35.31;53.50;100351.34;716859;1204;115100;-79
2021/07/07 15:06:56;;;;;;;7.60;5.80;;;;;;;35.33;52.81;100351.05;715846;1177;113741;-79
2021/07/07 15:21:59;;;;;;;7.10;5.90;;;;;;;35.31;52.82;100343.17;715231;1205;115531;-78
2021/07/07 15:37:01;;;;;;;7.77;6.43;;;;;;;34.74;53.76;100346.02;714300;1205;114796;-78
2021/07/07 15:52:06;;;;;;;8.93;7.10;;;;;;;34.50;54.53;100348.84;714619;1175;113625;-75
2021/07/07 16:07:08;;;;;;;11.50;7.30;;;;;;;33.93;56.38;100319.64;713984;1200;115371;-75
2021/07/07 16:22:10;;;;;;;12.47;8.13;;;;;;;32.95;58.78;100319.78;714503;1199;113890;-71
2021/07/07 16:37:13;;;;;;;13.63;11.13;;;;;;;32.21;61.27;100322.44;714013;1189;113967;-74
2021/07/07 16:52:15;;;;;;;12.10;9.27;;;;;;;31.63;62.98;100359.75;714254;1177;114149;-72
2021/07/07 17:07:17;;;;;;;12.10;4.37;;;;;;;28.11;74.74;100465.06;714233;1177;113858;-78
2021/07/07 17:22:19;;;;;;;11.70;3.70;;;;;;;24.78;98.04;100565.75;714393;1203;113868;-80
2021/07/07 17:37:22;;;;;;;7.68;3.78;;;;;;;24.45;100.00;100522.10;714561;1205;115661;-76
2021/07/07 17:52:24;;;;;;;7.88;4.40;;;;;;;24.55;100.00;100527.78;713954;1200;114625;-74
2021/07/07 18:07:26;;;;;;;37.85;25.23;;;;;;;24.62;100.00;100586.70;714186;1203;114016;-73
2021/07/07 18:22:29;;;;;;;11.23;8.03;;;;;;;24.68;100.00;100583.18;713956;1176;114196;-74
2021/07/07 18:37:31;;;;;;;11.30;6.78;;;;;;;25.17;100.00;100588.63;714101;1199;113731;-75
2021/07/07 18:52:35;;;;;;;10.80;6.35;;;;;;;25.07;100.00;100583.80;714235;1199;114149;-75
2021/07/07 19:07:39;;;;;;;14.30;8.78;;;;;;;24.78;100.00;100601.43;714728;1181;114316;-76
2021/07/07 19:22:41;;;;;;;14.83;7.70;;;;;;;24.38;100.00;100677.65;714329;1175;114124;-74
2021/07/07 19:37:47;;;;;;;22.17;12.00;;;;;;;24.18;100.00;100661.71;714247;1199;115773;-73
2021/07/07 19:52:51;;;;;;;11.43;7.95;;;;;;;23.98;100.00;100656.48;713861;1201;115211;-73
2021/07/07 20:07:54;;;;;;;10.57;6.00;;;;;;;24.19;100.00;100649.13;714085;1199;114990;-79
2021/07/07 20:22:57;;;;;;;11.25;7.50;;;;;;;23.51;100.00;100643.28;715465;1202;114610;-76
2021/07/07 20:37:59;;;;;;;7.48;5.55;;;;;;;23.43;100.00;100676.45;714372;1177;114219;-75
2021/07/07 20:53:02;;;;;;;5.73;5.13;;;;;;;23.26;100.00;100696.69;714402;1199;114742;-75
2021/07/07 21:08:08;;;;;;;7.30;5.13;;;;;;;23.09;100.00;100699.79;714502;1204;113954;-75
2021/07/07 21:23:11;;;;;;;9.73;6.55;;;;;;;23.09;100.00;100712.33;714482;1199;114260;-74
2021/07/07 21:38:14;;;;;;;6.75;4.75;;;;;;;22.97;100.00;100709.45;714091;1203;115743;-74
2021/07/07 21:53:16;;;;;;;7.38;5.55;;;;;;;22.73;100.00;100713.59;714766;1203;115771;-75
2021/07/07 22:08:18;;;;;;;8.45;5.60;;;;;;;22.62;100.00;100714.19;714457;1199;115317;-75
2021/07/07 22:23:21;;;;;;;8.70;5.45;;;;;;;22.41;100.00;100732.06;714466;1199;114738;-75
2021/07/07 22:38:23;;;;;;;10.47;7.10;;;;;;;22.43;100.00;100749.55;714596;1177;113796;-74
2021/07/07 22:53:26;;;;;;;11.03;7.05;;;;;;;22.26;100.00;100754.41;714363;1178;114527;-75
2021/07/07 23:08:28;;;;;;;10.93;5.93;;;;;;;22.19;100.00;100748.20;713837;1176;114321;-75
2021/07/07 23:23:31;;;;;;;14.85;6.73;;;;;;;22.16;100.00;100759.30;713941;1177;114014;-75
2021/07/07 23:38:33;;;;;;;8.00;5.63;;;;;;;22.14;100.00;100764.00;713882;1200;114227;-75
2021/07/07 23:53:35;;;;;;;8.93;3.93;;;;;;;22.06;100.00;100767.67;713863;1199;114809;-75
